Terminal Aerodrome Forecast
Issued by NWS Atlanta, GA

Home | Current Version | Previous Version | Text Only | Print | Product List | Glossary On
Versions: 1 2 3 4 5 6 7 8 9 10 11 12 13 14 15
001
FTUS42 KFFC 281733
TAFMCN
TAF
KMCN 281733Z 2818/2918 24010KT P6SM VCSH BKN035
     FM282300 25006KT P6SM SCT040
     FM290300 00000KT P6SM FEW120
     FM291200 01003KT 4SM BR BKN040
     FM291400 05003KT P6SM BKN050=

USA.gov is the U.S. government's official web portal to all federal, state and local government web resources and services.